createdAt,value
2023-01-03T00:01:51.501Z,3.83
2023-01-03T00:04:23.245Z,3.17
2023-01-03T00:06:55.053Z,3.33
2023-01-03T00:09:26.097Z,3.10
2023-01-03T00:12:14.002Z,3.22
2023-01-03T00:14:45.295Z,2.70
2023-01-03T00:17:14.882Z,4.38
2023-01-03T00:19:45.748Z,2.72
2023-01-03T00:22:17.469Z,3.60
2023-01-03T00:24:47.814Z,2.60
2023-01-03T00:27:18.157Z,3.35
2023-01-03T00:29:48.818Z,3.35
2023-01-03T00:32:18.082Z,2.97
2023-01-03T00:34:48.269Z,3.05
2023-01-03T00:37:19.049Z,2.60
2023-01-03T00:39:48.401Z,3.17
2023-01-03T00:42:17.705Z,2.38
2023-01-03T00:44:46.930Z,4.15
2023-01-03T00:47:16.146Z,2.63
2023-01-03T00:49:45.599Z,3.35
2023-01-03T00:52:14.873Z,2.47
2023-01-03T00:54:45.478Z,2.58
2023-01-03T00:57:14.655Z,3.03
2023-01-03T00:59:43.954Z,2.85
2023-01-03T01:02:13.356Z,2.67
2023-01-03T01:04:42.731Z,2.53
2023-01-03T01:07:11.971Z,2.30
2023-01-03T01:09:41.179Z,2.28
2023-01-03T01:12:11.849Z,2.70
2023-01-03T01:14:41.104Z,2.63
2023-01-03T01:17:10.915Z,2.88
2023-01-03T01:19:42.687Z,1.85
2023-01-03T01:22:13.180Z,1.83
2023-01-03T01:24:42.716Z,2.83
2023-01-03T01:27:13.737Z,2.28
2023-01-03T01:29:42.935Z,4.85
2023-01-03T01:32:12.176Z,2.15
2023-01-03T01:34:41.397Z,2.33
2023-01-03T01:37:10.540Z,2.05
2023-01-03T01:39:39.842Z,1.90
2023-01-03T01:42:31.981Z,2.10
2023-01-03T01:45:01.751Z,2.15
2023-01-03T01:47:37.710Z,1.73
2023-01-03T01:50:22.103Z,1.65
2023-01-03T01:52:59.369Z,1.48
2023-01-03T01:55:32.894Z,2.20
2023-01-03T01:58:04.475Z,2.30
2023-01-03T02:00:34.936Z,2.80
2023-01-03T02:03:04.981Z,1.63
2023-01-03T02:05:38.598Z,2.10
2023-01-03T02:08:07.970Z,1.73
2023-01-03T02:10:59.457Z,2.15
2023-01-03T02:13:37.406Z,1.73
2023-01-03T02:16:26.691Z,1.75
2023-01-03T02:19:05.654Z,2.05
2023-01-03T02:22:08.599Z,2.25
2023-01-03T02:25:03.249Z,2.13
2023-01-03T02:30:39.204Z,1.83
2023-01-03T02:33:22.332Z,1.40
2023-01-03T02:36:01.800Z,1.40
2023-01-03T02:38:41.023Z,1.73
2023-01-03T02:41:18.792Z,1.48
2023-01-03T02:43:53.784Z,1.70
2023-01-03T02:46:29.078Z,1.30
2023-01-03T02:49:02.580Z,1.60
2023-01-03T02:51:38.227Z,1.60
2023-01-03T02:54:11.731Z,1.42
2023-01-03T02:56:45.938Z,2.30
2023-01-03T02:59:18.652Z,1.10
2023-01-03T03:01:51.507Z,1.60
2023-01-03T03:04:22.365Z,1.58
2023-01-03T03:06:59.472Z,1.13
2023-01-03T03:09:28.733Z,1.25
2023-01-03T03:12:17.980Z,1.23
2023-01-03T03:14:51.709Z,2.17
2023-01-03T03:17:29.984Z,2.38
2023-01-03T03:20:16.783Z,1.27
2023-01-03T03:23:07.414Z,1.00
2023-01-03T03:25:41.413Z,1.20
2023-01-03T03:28:32.083Z,1.15
2023-01-03T03:31:07.544Z,1.35
2023-01-03T03:33:43.657Z,1.50
2023-01-03T03:36:17.628Z,1.00
2023-01-03T03:38:48.318Z,1.90
2023-01-03T03:41:41.233Z,1.20
2023-01-03T03:47:22.600Z,1.20
2023-01-03T03:49:56.199Z,1.75
2023-01-03T03:52:30.484Z,0.90
2023-01-03T03:55:05.020Z,1.55
2023-01-03T03:57:37.735Z,1.20
2023-01-03T04:00:12.841Z,0.98
2023-01-03T04:02:43.756Z,1.00
2023-01-03T04:05:19.090Z,0.80
2023-01-03T04:07:48.999Z,1.02
2023-01-03T04:10:20.523Z,1.00
2023-01-03T04:12:51.560Z,0.75
2023-01-03T04:15:21.013Z,0.80
2023-01-03T04:17:50.246Z,0.80
2023-01-03T04:20:21.251Z,0.85
2023-01-03T04:22:50.447Z,1.08
2023-01-03T04:25:19.646Z,0.85
2023-01-03T04:27:48.900Z,0.93
2023-01-03T04:30:18.393Z,0.60
2023-01-03T04:32:47.572Z,1.25
2023-01-03T04:35:16.747Z,0.95
2023-01-03T04:37:47.446Z,0.70
2023-01-03T04:40:17.001Z,2.60
2023-01-03T04:43:03.468Z,1.13
2023-01-03T04:45:32.862Z,1.17
2023-01-03T04:48:02.774Z,0.77
2023-01-03T04:50:32.891Z,1.92
2023-01-03T04:53:03.664Z,1.02
2023-01-03T04:55:32.823Z,0.90
2023-01-03T04:58:03.016Z,1.23
2023-01-03T05:00:32.287Z,0.75
2023-01-03T05:03:01.438Z,1.23
2023-01-03T05:05:30.831Z,0.47
2023-01-03T05:08:00.050Z,1.00
2023-01-03T05:10:30.778Z,0.65
2023-01-03T05:13:02.992Z,0.68
2023-01-03T05:15:36.107Z,1.70
2023-01-03T05:18:06.148Z,1.30
2023-01-03T05:20:54.997Z,1.20
2023-01-03T05:23:42.055Z,1.77
2023-01-03T05:26:15.308Z,0.80
2023-01-03T05:28:46.419Z,0.68
2023-01-03T05:31:15.960Z,0.60
2023-01-03T05:33:45.204Z,0.73
2023-01-03T05:36:16.444Z,0.85
2023-01-03T05:38:46.139Z,0.52
2023-01-03T05:41:38.211Z,0.82
2023-01-03T05:44:07.771Z,3.00
2023-01-03T05:46:37.162Z,1.30
2023-01-03T05:49:06.801Z,1.23
2023-01-03T05:51:36.146Z,3.60
2023-01-03T05:54:05.476Z,9.88
2023-01-03T05:56:36.607Z,5.55
2023-01-03T05:59:07.937Z,4.55
2023-01-03T06:01:38.117Z,4.57
2023-01-03T06:04:07.891Z,2.63
2023-01-03T06:06:37.213Z,3.78
2023-01-03T06:09:07.007Z,3.28
2023-01-03T06:11:37.791Z,1.67
2023-01-03T06:14:07.213Z,2.58
2023-01-03T06:16:54.396Z,2.50
2023-01-03T06:19:25.184Z,3.03
2023-01-03T06:21:54.772Z,3.58
2023-01-03T06:24:24.739Z,0.95
2023-01-03T06:26:55.915Z,3.05
2023-01-03T06:29:25.502Z,3.17
2023-01-03T06:31:54.790Z,2.92
2023-01-03T06:34:24.212Z,2.35
2023-01-03T06:36:53.555Z,0.65
2023-01-03T06:39:22.813Z,4.10
2023-01-03T06:41:52.200Z,0.82
2023-01-03T06:44:23.730Z,2.33
2023-01-03T06:47:10.241Z,1.58
2023-01-03T06:49:56.950Z,1.38
2023-01-03T06:52:43.813Z,4.82
2023-01-03T06:55:13.122Z,3.60
2023-01-03T06:57:42.488Z,5.55
2023-01-03T07:00:15.032Z,1.52
2023-01-03T07:02:44.446Z,4.75
2023-01-03T07:05:14.041Z,2.70
2023-01-03T07:07:43.408Z,1.83
2023-01-03T07:10:12.799Z,4.43
2023-01-03T07:12:58.674Z,1.48
2023-01-03T07:15:29.501Z,3.47
2023-01-03T07:17:59.012Z,1.10
2023-01-03T07:20:28.434Z,1.90
2023-01-03T07:22:58.785Z,0.82
2023-01-03T07:25:28.156Z,1.60
2023-01-03T07:28:05.374Z,0.80
2023-01-03T07:30:41.121Z,5.60
2023-01-03T07:33:11.711Z,1.60
2023-01-03T07:35:42.336Z,1.55
2023-01-03T07:38:13.614Z,2.15
2023-01-03T07:40:43.454Z,3.22
2023-01-03T07:43:31.182Z,2.63
2023-01-03T07:46:02.882Z,0.82
2023-01-03T07:48:32.743Z,0.80
2023-01-03T07:51:02.771Z,0.63
2023-01-03T07:53:32.154Z,2.00
2023-01-03T07:56:12.436Z,2.20
2023-01-03T07:58:44.155Z,1.27
2023-01-03T08:01:16.398Z,1.13
2023-01-03T08:03:46.688Z,1.25
2023-01-03T08:06:18.136Z,0.68
2023-01-03T08:09:08.189Z,2.35
2023-01-03T08:11:55.022Z,0.90
2023-01-03T08:14:26.837Z,0.88
2023-01-03T08:16:57.792Z,0.95
2023-01-03T08:19:27.111Z,1.85
2023-01-03T08:21:56.424Z,1.25
2023-01-03T08:24:25.843Z,1.80
2023-01-03T08:26:55.179Z,0.98
2023-01-03T08:29:24.486Z,1.27
2023-01-03T08:31:57.154Z,0.88
2023-01-03T08:34:31.787Z,2.58
2023-01-03T08:37:05.301Z,2.00
2023-01-03T08:39:39.262Z,2.70
2023-01-03T08:42:09.649Z,0.60
2023-01-03T08:44:40.067Z,0.60
2023-01-03T08:47:11.066Z,1.30
2023-01-03T08:49:41.997Z,1.88
2023-01-03T08:52:11.544Z,4.13
2023-01-03T08:54:40.841Z,1.42
2023-01-03T08:57:10.143Z,1.60
2023-01-03T08:59:39.954Z,0.60
2023-01-03T09:02:09.418Z,0.75
2023-01-03T09:04:38.915Z,1.80
2023-01-03T09:07:09.575Z,1.33
2023-01-03T09:09:38.823Z,1.25
2023-01-03T09:12:08.403Z,2.92
2023-01-03T09:14:37.582Z,1.60
2023-01-03T09:17:06.872Z,1.67
2023-01-03T09:19:36.127Z,0.63
2023-01-03T09:22:05.355Z,0.95
2023-01-03T09:24:36.100Z,2.30
2023-01-03T09:27:05.539Z,0.90
2023-01-03T09:29:35.720Z,1.42
2023-01-03T09:32:05.387Z,0.52
2023-01-03T09:34:34.755Z,1.33
2023-01-03T09:37:04.806Z,2.88
2023-01-03T09:39:35.452Z,0.95
2023-01-03T09:42:23.897Z,1.90
2023-01-03T09:44:54.692Z,2.53
2023-01-03T09:47:26.978Z,0.75
2023-01-03T09:50:29.063Z,0.73
2023-01-03T09:53:04.968Z,1.13
2023-01-03T09:56:02.262Z,1.27
2023-01-03T09:58:49.246Z,0.65
2023-01-03T10:01:53.534Z,1.10
2023-01-03T10:04:45.503Z,0.63
2023-01-03T10:07:28.457Z,0.93
2023-01-03T10:10:07.966Z,0.88
2023-01-03T10:12:53.178Z,1.20
2023-01-03T10:15:35.754Z,0.85
2023-01-03T10:18:16.425Z,0.60
2023-01-03T10:20:51.750Z,1.52
2023-01-03T10:23:23.747Z,1.55
2023-01-03T10:25:53.607Z,0.80
2023-01-03T10:28:26.697Z,0.90
2023-01-03T10:31:17.371Z,0.70
2023-01-03T10:33:49.503Z,0.70
2023-01-03T10:36:21.113Z,2.28
2023-01-03T10:39:03.349Z,0.88
2023-01-03T10:41:38.288Z,0.95
2023-01-03T10:44:09.141Z,0.82
2023-01-03T10:46:53.826Z,1.83
2023-01-03T10:49:27.212Z,0.70
2023-01-03T10:52:01.141Z,1.05
2023-01-03T10:54:48.114Z,0.73
2023-01-03T10:57:43.870Z,1.05
2023-01-03T11:00:30.818Z,0.95
2023-01-03T11:03:13.408Z,1.27
2023-01-03T11:05:44.780Z,0.70
2023-01-03T11:08:21.095Z,1.70
2023-01-03T11:10:58.908Z,1.23
2023-01-03T11:13:35.672Z,1.00
2023-01-03T11:16:15.247Z,1.20
2023-01-03T11:18:46.015Z,3.28
2023-01-03T11:21:24.318Z,2.15
2023-01-03T11:24:08.805Z,1.27
2023-01-03T11:26:47.877Z,1.52
2023-01-03T11:29:35.585Z,1.13
2023-01-03T11:32:21.851Z,0.75
2023-01-03T11:35:23.917Z,1.27
2023-01-03T11:38:05.194Z,1.45
2023-01-03T11:40:45.024Z,1.52
2023-01-03T11:43:26.486Z,1.13
2023-01-03T11:46:18.201Z,1.25
2023-01-03T11:49:02.286Z,0.80
2023-01-03T11:51:37.532Z,1.75
2023-01-03T11:54:16.788Z,1.73
2023-01-03T11:56:48.497Z,0.68
2023-01-03T12:02:37.306Z,0.73
2023-01-03T12:08:09.474Z,2.17
2023-01-03T12:10:45.533Z,1.35
2023-01-03T12:13:29.872Z,1.17
2023-01-03T12:16:05.864Z,1.20
2023-01-03T12:18:45.575Z,1.00
2023-01-03T12:21:21.895Z,0.80
2023-01-03T12:23:58.103Z,0.90
2023-01-03T12:26:28.474Z,0.68
2023-01-03T12:29:05.463Z,1.20
2023-01-03T12:31:40.952Z,0.70
2023-01-03T12:34:18.271Z,0.85
2023-01-03T12:36:58.762Z,0.73
2023-01-03T12:39:39.868Z,1.25
2023-01-03T12:42:21.536Z,0.68
2023-01-03T12:45:01.203Z,0.70
2023-01-03T12:47:35.045Z,2.22
2023-01-03T12:50:08.852Z,0.65
2023-01-03T12:52:41.517Z,1.08
2023-01-03T12:55:21.615Z,0.70
2023-01-03T12:58:21.593Z,0.90
2023-01-03T13:00:59.504Z,0.68
2023-01-03T13:03:36.087Z,2.22
2023-01-03T13:06:12.349Z,0.80
2023-01-03T13:08:46.339Z,0.60
2023-01-03T13:11:23.043Z,0.60
2023-01-03T13:13:56.246Z,0.40
2023-01-03T13:16:43.408Z,0.57
2023-01-03T13:19:52.724Z,2.85
2023-01-03T13:22:49.687Z,0.80
2023-01-03T13:25:39.502Z,0.60
2023-01-03T13:28:37.302Z,0.63
2023-01-03T13:31:46.842Z,1.75
2023-01-03T13:34:32.745Z,0.70
2023-01-03T13:37:22.458Z,1.00
2023-01-03T13:40:59.840Z,1.15
2023-01-03T13:43:21.921Z,0.50
2023-01-03T13:46:02.976Z,0.60
2023-01-03T13:48:39.607Z,0.68
2023-01-03T13:51:38.561Z,0.60
2023-01-03T13:54:36.192Z,1.65
2023-01-03T13:57:27.510Z,0.82
2023-01-03T13:59:58.702Z,0.60
2023-01-03T14:03:02.697Z,0.63
2023-01-03T14:05:54.665Z,0.50
2023-01-03T14:08:36.985Z,0.40
2023-01-03T14:11:23.220Z,0.60
2023-01-03T14:13:56.674Z,0.60
2023-01-03T14:16:28.990Z,1.73
2023-01-03T14:19:04.755Z,1.35
2023-01-03T14:21:43.003Z,1.35
2023-01-03T14:24:26.712Z,0.88
2023-01-03T14:26:57.190Z,0.70
2023-01-03T14:29:27.932Z,0.73
2023-01-03T14:32:00.476Z,1.25
2023-01-03T14:34:35.927Z,1.10
2023-01-03T14:37:07.535Z,0.52
2023-01-03T14:42:07.796Z,0.60
2023-01-03T14:44:37.524Z,0.70
2023-01-03T14:47:14.408Z,1.10
2023-01-03T14:49:48.936Z,2.00
2023-01-03T14:52:23.654Z,0.82
2023-01-03T14:55:00.009Z,0.55
2023-01-03T14:57:33.502Z,1.90
2023-01-03T15:00:03.320Z,0.82
2023-01-03T15:02:38.365Z,1.85
2023-01-03T15:05:25.268Z,1.17
2023-01-03T15:07:54.656Z,1.02
2023-01-03T15:10:31.452Z,1.00
2023-01-03T15:13:04.968Z,1.35
2023-01-03T15:15:39.679Z,1.35
2023-01-03T15:18:10.086Z,0.77
2023-01-03T15:20:43.945Z,1.08
2023-01-03T15:23:35.785Z,0.57
2023-01-03T15:26:05.686Z,0.60
2023-01-03T15:28:38.850Z,0.52
2023-01-03T15:31:16.696Z,0.85
2023-01-03T15:33:46.221Z,0.90
2023-01-03T15:36:19.393Z,0.88
2023-01-03T15:38:50.195Z,0.70
2023-01-03T15:41:42.053Z,1.05
2023-01-03T15:44:12.994Z,0.50
2023-01-03T15:46:45.379Z,1.15
2023-01-03T15:49:16.283Z,0.63
2023-01-03T15:51:47.481Z,0.60
2023-01-03T15:54:18.637Z,0.68
2023-01-03T15:56:50.508Z,0.80
2023-01-03T15:59:24.886Z,0.60
2023-01-03T16:01:54.799Z,1.02
2023-01-03T16:04:24.330Z,1.27
2023-01-03T16:06:55.099Z,1.52
2023-01-03T16:09:24.663Z,1.17
2023-01-03T16:12:00.220Z,0.88
2023-01-03T16:14:36.226Z,0.60
2023-01-03T16:17:06.373Z,0.80
2023-01-03T16:19:37.116Z,1.27
2023-01-03T16:22:33.774Z,0.57
2023-01-03T16:24:57.461Z,0.43
2023-01-03T16:27:26.738Z,1.25
2023-01-03T16:29:56.408Z,0.77
2023-01-03T16:32:28.477Z,0.98
2023-01-03T16:35:01.115Z,0.55
2023-01-03T16:37:31.888Z,1.25
2023-01-03T16:40:01.259Z,0.88
2023-01-03T16:42:30.591Z,0.70
2023-01-03T16:45:00.484Z,0.60
2023-01-03T16:47:33.946Z,0.70
2023-01-03T16:50:08.078Z,0.70
2023-01-03T16:52:41.165Z,0.80
2023-01-03T16:55:17.608Z,0.82
2023-01-03T16:57:53.605Z,0.73
2023-01-03T17:00:25.844Z,2.25
2023-01-03T17:02:56.317Z,1.65
2023-01-03T17:05:26.511Z,3.03
2023-01-03T17:08:02.914Z,0.75
2023-01-03T17:10:35.524Z,0.70
2023-01-03T17:13:12.504Z,1.13
2023-01-03T17:15:43.095Z,3.88
2023-01-03T17:18:20.489Z,1.67
2023-01-03T17:20:53.696Z,0.80
2023-01-03T17:23:25.062Z,5.80
2023-01-03T17:25:54.706Z,1.13
2023-01-03T17:28:24.417Z,1.17
2023-01-03T17:30:56.990Z,1.60
2023-01-03T17:33:33.579Z,0.90
2023-01-03T17:36:03.427Z,1.15
2023-01-03T17:38:35.277Z,1.00
2023-01-03T17:41:04.967Z,1.20
2023-01-03T17:43:34.199Z,2.08
2023-01-03T17:46:24.005Z,1.33
2023-01-03T17:49:10.984Z,1.23
2023-01-03T17:51:40.473Z,0.95
2023-01-03T17:54:13.903Z,1.08
2023-01-03T17:56:43.378Z,2.35
2023-01-03T17:59:14.612Z,1.42
2023-01-03T18:01:44.191Z,0.80
2023-01-03T18:04:13.513Z,1.75
2023-01-03T18:06:42.771Z,0.93
2023-01-03T18:09:16.744Z,0.80
2023-01-03T18:11:45.997Z,1.13
2023-01-03T18:14:16.525Z,1.50
2023-01-03T18:16:51.485Z,1.00
2023-01-03T18:19:24.113Z,1.38
2023-01-03T18:21:53.611Z,1.88
2023-01-03T18:24:28.192Z,1.63
2023-01-03T18:26:58.638Z,1.38
2023-01-03T18:29:27.938Z,2.33
2023-01-03T18:31:57.588Z,1.30
2023-01-03T18:34:26.931Z,1.55
2023-01-03T18:36:56.142Z,1.60
2023-01-03T18:39:29.997Z,2.25
2023-01-03T18:42:20.976Z,1.45
2023-01-03T18:44:50.361Z,1.13
2023-01-03T18:47:19.620Z,1.88
2023-01-03T18:49:48.829Z,1.08
2023-01-03T18:52:25.489Z,1.55
2023-01-03T18:54:56.219Z,2.13
2023-01-03T18:57:25.683Z,2.22
2023-01-03T18:59:54.951Z,1.40
2023-01-03T19:02:24.682Z,2.35
2023-01-03T19:04:54.086Z,3.72
2023-01-03T19:07:30.580Z,8.45
2023-01-03T19:10:02.175Z,13.40
2023-01-03T19:12:33.868Z,16.85
2023-01-03T19:15:03.265Z,24.98
2023-01-03T19:17:32.733Z,20.23
2023-01-03T19:20:01.955Z,16.05
2023-01-03T19:22:33.248Z,18.75
2023-01-03T19:25:07.174Z,16.25
2023-01-03T19:27:40.988Z,13.52
2023-01-03T19:30:19.695Z,16.65
2023-01-03T19:32:53.678Z,16.08
2023-01-03T19:35:24.767Z,14.23
2023-01-03T19:37:54.348Z,17.52
2023-01-03T19:40:29.512Z,17.77
2023-01-03T19:43:00.378Z,17.60
2023-01-03T19:45:31.683Z,17.08
2023-01-03T19:48:03.016Z,18.25
2023-01-03T19:50:34.080Z,19.13
2023-01-03T19:53:03.790Z,20.02
2023-01-03T19:55:35.786Z,23.33
2023-01-03T19:58:13.186Z,18.23
2023-01-03T20:00:42.658Z,19.33
2023-01-03T20:03:27.855Z,15.27
2023-01-03T20:05:57.527Z,12.82
2023-01-03T20:08:26.878Z,15.48
2023-01-03T20:10:58.864Z,15.60
2023-01-03T20:13:29.729Z,15.18
2023-01-03T20:16:02.169Z,15.63
2023-01-03T20:18:34.255Z,25.02
2023-01-03T20:21:08.384Z,16.88
2023-01-03T20:23:41.445Z,13.30
2023-01-03T20:26:21.337Z,15.23
2023-01-03T20:28:50.996Z,11.73
2023-01-03T20:31:21.174Z,16.15
2023-01-03T20:33:52.270Z,18.77
2023-01-03T20:36:25.775Z,14.50
2023-01-03T20:38:56.980Z,9.93
2023-01-03T20:41:36.728Z,13.43
2023-01-03T20:44:08.654Z,10.23
2023-01-03T20:46:39.251Z,17.20
2023-01-03T20:49:16.082Z,17.60
2023-01-03T20:51:45.635Z,9.50
2023-01-03T20:54:14.936Z,9.98
2023-01-03T20:56:46.081Z,9.23
2023-01-03T20:59:17.636Z,8.32
2023-01-03T21:01:49.599Z,8.82
2023-01-03T21:04:19.590Z,7.82
2023-01-03T21:06:48.974Z,10.85
2023-01-03T21:09:18.213Z,6.72
2023-01-03T21:11:49.072Z,6.60
2023-01-03T21:14:18.604Z,6.03
2023-01-03T21:16:48.306Z,7.82
2023-01-03T21:19:19.271Z,6.30
2023-01-03T21:21:50.258Z,5.97
2023-01-03T21:24:21.802Z,8.48
2023-01-03T21:26:52.422Z,4.68
2023-01-03T21:29:22.241Z,8.00
2023-01-03T21:31:51.739Z,5.88
2023-01-03T21:34:22.908Z,7.65
2023-01-03T21:36:52.140Z,5.15
2023-01-03T21:39:21.331Z,5.38
2023-01-03T21:42:09.554Z,4.95
2023-01-03T21:44:38.883Z,6.50
2023-01-03T21:47:08.040Z,4.43
2023-01-03T21:49:37.186Z,5.90
2023-01-03T21:52:06.788Z,5.82
2023-01-03T21:54:36.071Z,4.35
2023-01-03T21:57:06.710Z,6.43
2023-01-03T21:59:37.978Z,4.68
2023-01-03T22:02:24.920Z,3.58
2023-01-03T22:04:54.134Z,4.22
2023-01-03T22:07:23.464Z,4.13
2023-01-03T22:10:10.389Z,4.10
2023-01-03T22:12:41.104Z,3.67
2023-01-03T22:15:11.240Z,6.43
2023-01-03T22:17:40.870Z,2.63
2023-01-03T22:20:12.830Z,3.10
2023-01-03T22:22:43.208Z,3.38
2023-01-03T22:25:15.700Z,2.80
2023-01-03T22:27:46.837Z,2.17
2023-01-03T22:30:18.654Z,3.83
2023-01-03T22:32:48.138Z,2.80
2023-01-03T22:35:19.108Z,2.95
2023-01-03T22:37:48.486Z,2.28
2023-01-03T22:40:18.797Z,2.72
2023-01-03T22:42:49.463Z,4.22
2023-01-03T22:45:18.836Z,2.92
2023-01-03T22:47:48.077Z,4.40
2023-01-03T22:50:17.265Z,2.38
2023-01-03T22:52:46.445Z,5.32
2023-01-03T22:55:15.679Z,2.85
2023-01-03T22:57:44.956Z,3.28
2023-01-03T23:00:16.625Z,3.75
2023-01-03T23:02:45.948Z,2.53
2023-01-03T23:05:15.738Z,3.30
2023-01-03T23:07:46.968Z,2.80
2023-01-03T23:10:16.324Z,2.53
2023-01-03T23:12:59.931Z,5.75
2023-01-03T23:15:31.832Z,3.63
2023-01-03T23:18:01.054Z,3.90
2023-01-03T23:20:32.091Z,2.00
2023-01-03T23:23:03.252Z,2.20
2023-01-03T23:25:33.339Z,5.32
2023-01-03T23:28:02.613Z,2.15
2023-01-03T23:30:33.472Z,2.13
2023-01-03T23:33:02.707Z,1.75
2023-01-03T23:35:31.828Z,7.53
2023-01-03T23:38:01.151Z,1.90
2023-01-03T23:40:30.395Z,2.35
2023-01-03T23:42:59.776Z,3.70
2023-01-03T23:45:29.044Z,2.10
2023-01-03T23:47:59.719Z,3.55
2023-01-03T23:50:29.123Z,2.10
2023-01-03T23:52:59.786Z,2.30
2023-01-03T23:55:29.075Z,2.28
2023-01-03T23:57:58.297Z,2.03
